sensor_id;sensor_type;location;lat;lon;timestamp;pressure;altitude;pressure_sealevel;temperature;humidity
16595;BME280;8410;52.532;13.336;2023-02-19T00:01:28;101002.13;;;8.87;85.61
16595;BME280;8410;52.532;13.336;2023-02-19T00:04:00;101004.19;;;8.66;86.66
16595;BME280;8410;52.532;13.336;2023-02-19T00:06:29;100995.44;;;8.57;88.09
16595;BME280;8410;52.532;13.336;2023-02-19T00:08:58;100982.47;;;10.59;100.00
16595;BME280;8410;52.532;13.336;2023-02-19T00:11:27;100979.56;;;11.58;96.16
16595;BME280;8410;52.532;13.336;2023-02-19T00:13:57;100981.16;;;12.26;87.09
16595;BME280;8410;52.532;13.336;2023-02-19T00:16:26;100964.47;;;12.89;84.41
16595;BME280;8410;52.532;13.336;2023-02-19T00:18:55;100973.66;;;12.49;81.47
16595;BME280;8410;52.532;13.336;2023-02-19T00:21:25;100967.69;;;12.57;84.13
16595;BME280;8410;52.532;13.336;2023-02-19T00:23:56;100988.53;;;11.22;76.32
16595;BME280;8410;52.532;13.336;2023-02-19T00:26:23;100980.22;;;10.29;78.42
16595;BME280;8410;52.532;13.336;2023-02-19T00:28:53;100985.63;;;9.97;79.70
16595;BME280;8410;52.532;13.336;2023-02-19T00:31:22;100984.75;;;9.54;82.41
16595;BME280;8410;52.532;13.336;2023-02-19T00:33:52;100979.56;;;8.74;84.80
16595;BME280;8410;52.532;13.336;2023-02-19T00:36:21;100975.00;;;9.36;83.84
16595;BME280;8410;52.532;13.336;2023-02-19T00:38:50;100965.56;;;8.97;83.76
16595;BME280;8410;52.532;13.336;2023-02-19T00:41:20;100974.97;;;8.60;87.33
16595;BME280;8410;52.532;13.336;2023-02-19T00:43:49;100966.72;;;9.10;85.99
16595;BME280;8410;52.532;13.336;2023-02-19T00:46:19;100969.25;;;9.09;85.17
16595;BME280;8410;52.532;13.336;2023-02-19T00:48:47;100966.47;;;8.99;86.23
16595;BME280;8410;52.532;13.336;2023-02-19T00:51:15;100963.19;;;9.05;86.10
16595;BME280;8410;52.532;13.336;2023-02-19T00:53:43;100966.97;;;8.83;87.13
16595;BME280;8410;52.532;13.336;2023-02-19T00:56:12;100963.44;;;8.78;86.24
16595;BME280;8410;52.532;13.336;2023-02-19T00:58:40;100962.19;;;8.98;86.04
16595;BME280;8410;52.532;13.336;2023-02-19T01:01:08;100957.91;;;9.38;84.59
16595;BME280;8410;52.532;13.336;2023-02-19T01:03:36;100963.13;;;9.02;85.07
16595;BME280;8410;52.532;13.336;2023-02-19T01:06:06;100956.06;;;8.55;88.55
16595;BME280;8410;52.532;13.336;2023-02-19T01:08:34;100944.34;;;8.67;88.16
16595;BME280;8410;52.532;13.336;2023-02-19T01:11:04;100945.09;;;7.96;90.61
16595;BME280;8410;52.532;13.336;2023-02-19T01:13:34;100954.38;;;7.91;90.37
16595;BME280;8410;52.532;13.336;2023-02-19T01:16:02;100953.91;;;7.72;93.61
16595;BME280;8410;52.532;13.336;2023-02-19T01:18:30;100952.59;;;7.88;92.57
16595;BME280;8410;52.532;13.336;2023-02-19T01:20:58;100942.88;;;8.42;90.96
16595;BME280;8410;52.532;13.336;2023-02-19T01:23:25;100926.75;;;8.47;90.54
16595;BME280;8410;52.532;13.336;2023-02-19T01:25:53;100924.09;;;8.09;91.40
16595;BME280;8410;52.532;13.336;2023-02-19T01:28:20;100928.44;;;8.12;91.04
16595;BME280;8410;52.532;13.336;2023-02-19T01:30:50;100924.13;;;7.46;93.43
16595;BME280;8410;52.532;13.336;2023-02-19T01:33:17;100914.22;;;6.98;95.81
16595;BME280;8410;52.532;13.336;2023-02-19T01:35:45;100911.81;;;7.33;96.52
16595;BME280;8410;52.532;13.336;2023-02-19T01:38:12;100915.56;;;7.45;94.89
16595;BME280;8410;52.532;13.336;2023-02-19T01:40:39;100920.28;;;7.32;94.41
16595;BME280;8410;52.532;13.336;2023-02-19T01:43:13;100919.25;;;7.55;94.79
16595;BME280;8410;52.532;13.336;2023-02-19T01:45:43;100921.94;;;7.29;93.94
16595;BME280;8410;52.532;13.336;2023-02-19T01:48:14;100913.38;;;7.27;94.58
16595;BME280;8410;52.532;13.336;2023-02-19T01:50:46;100908.44;;;7.65;93.92
16595;BME280;8410;52.532;13.336;2023-02-19T01:53:18;100905.19;;;7.41;93.24
16595;BME280;8410;52.532;13.336;2023-02-19T01:55:51;100904.03;;;7.61;94.10
16595;BME280;8410;52.532;13.336;2023-02-19T01:58:20;100894.56;;;7.59;92.62
16595;BME280;8410;52.532;13.336;2023-02-19T02:00:48;100900.41;;;7.23;92.12
16595;BME280;8410;52.532;13.336;2023-02-19T02:03:18;100894.44;;;6.65;95.02
16595;BME280;8410;52.532;13.336;2023-02-19T02:05:52;100884.94;;;6.61;95.63
16595;BME280;8410;52.532;13.336;2023-02-19T02:08:22;100884.13;;;6.91;95.72
16595;BME280;8410;52.532;13.336;2023-02-19T02:11:08;100879.47;;;6.77;95.78
16595;BME280;8410;52.532;13.336;2023-02-19T02:13:37;100879.34;;;7.03;94.21
16595;BME280;8410;52.532;13.336;2023-02-19T02:16:13;100882.91;;;6.51;95.15
16595;BME280;8410;52.532;13.336;2023-02-19T02:18:57;100893.97;;;6.50;96.22
16595;BME280;8410;52.532;13.336;2023-02-19T02:21:41;100886.19;;;6.74;94.97
16595;BME280;8410;52.532;13.336;2023-02-19T02:24:27;100887.50;;;6.61;95.68
16595;BME280;8410;52.532;13.336;2023-02-19T02:27:23;100898.22;;;6.76;96.11
16595;BME280;8410;52.532;13.336;2023-02-19T02:30:06;100887.84;;;7.31;93.55
16595;BME280;8410;52.532;13.336;2023-02-19T02:32:41;100878.31;;;7.57;90.29
16595;BME280;8410;52.532;13.336;2023-02-19T02:35:21;100888.75;;;6.47;92.62
16595;BME280;8410;52.532;13.336;2023-02-19T02:37:50;100888.53;;;6.39;93.74
16595;BME280;8410;52.532;13.336;2023-02-19T02:40:19;100888.97;;;6.53;94.04
16595;BME280;8410;52.532;13.336;2023-02-19T02:42:47;100883.38;;;6.95;92.51
16595;BME280;8410;52.532;13.336;2023-02-19T02:45:24;100881.09;;;6.75;91.68
16595;BME280;8410;52.532;13.336;2023-02-19T02:48:15;100884.13;;;6.35;94.32
16595;BME280;8410;52.532;13.336;2023-02-19T02:50:47;100885.22;;;6.16;94.79
16595;BME280;8410;52.532;13.336;2023-02-19T02:53:19;100882.94;;;6.25;95.30
16595;BME280;8410;52.532;13.336;2023-02-19T02:56:05;100883.25;;;6.34;95.13
16595;BME280;8410;52.532;13.336;2023-02-19T02:58:33;100884.38;;;6.17;95.15
16595;BME280;8410;52.532;13.336;2023-02-19T03:01:05;100891.50;;;6.00;96.41
16595;BME280;8410;52.532;13.336;2023-02-19T03:03:56;100896.31;;;6.44;96.27
16595;BME280;8410;52.532;13.336;2023-02-19T03:06:29;100894.53;;;6.41;94.49
16595;BME280;8410;52.532;13.336;2023-02-19T03:09:01;100894.50;;;6.39;94.48
16595;BME280;8410;52.532;13.336;2023-02-19T03:11:33;100902.78;;;6.32;95.19
16595;BME280;8410;52.532;13.336;2023-02-19T03:14:22;100902.44;;;6.22;94.46
16595;BME280;8410;52.532;13.336;2023-02-19T03:17:15;100904.56;;;6.08;95.96
16595;BME280;8410;52.532;13.336;2023-02-19T03:20:04;100904.09;;;6.47;95.32
16595;BME280;8410;52.532;13.336;2023-02-19T03:22:36;100898.59;;;6.34;96.14
16595;BME280;8410;52.532;13.336;2023-02-19T03:25:08;100905.75;;;6.17;95.64
16595;BME280;8410;52.532;13.336;2023-02-19T03:27:56;100921.00;;;6.42;95.48
16595;BME280;8410;52.532;13.336;2023-02-19T03:30:28;100921.22;;;5.96;95.99
16595;BME280;8410;52.532;13.336;2023-02-19T03:33:00;100916.09;;;5.48;95.86
16595;BME280;8410;52.532;13.336;2023-02-19T03:35:30;100920.19;;;5.43;97.06
16595;BME280;8410;52.532;13.336;2023-02-19T03:38:03;100913.38;;;5.44;96.32
16595;BME280;8410;52.532;13.336;2023-02-19T03:40:36;100925.97;;;4.49;96.41
16595;BME280;8410;52.532;13.336;2023-02-19T03:43:13;100929.13;;;4.87;96.33
16595;BME280;8410;52.532;13.336;2023-02-19T03:45:48;100928.13;;;4.83;96.47
16595;BME280;8410;52.532;13.336;2023-02-19T03:48:32;100931.94;;;4.50;96.62
16595;BME280;8410;52.532;13.336;2023-02-19T03:51:10;100929.31;;;4.48;96.54
16595;BME280;8410;52.532;13.336;2023-02-19T03:53:47;100946.22;;;4.46;96.01
16595;BME280;8410;52.532;13.336;2023-02-19T03:56:19;100934.16;;;4.42;96.60
16595;BME280;8410;52.532;13.336;2023-02-19T03:58:53;100940.38;;;4.49;97.06
16595;BME280;8410;52.532;13.336;2023-02-19T04:01:26;100941.38;;;4.52;97.48
16595;BME280;8410;52.532;13.336;2023-02-19T04:04:03;100930.03;;;4.67;97.05
16595;BME280;8410;52.532;13.336;2023-02-19T04:06:36;100950.63;;;4.50;97.31
16595;BME280;8410;52.532;13.336;2023-02-19T04:09:06;100945.66;;;4.53;97.75
16595;BME280;8410;52.532;13.336;2023-02-19T04:11:35;100952.16;;;4.68;97.81
16595;BME280;8410;52.532;13.336;2023-02-19T04:14:06;100957.78;;;5.02;96.11
16595;BME280;8410;52.532;13.336;2023-02-19T04:16:38;100959.00;;;4.90;95.36
16595;BME280;8410;52.532;13.336;2023-02-19T04:19:11;100955.53;;;4.67;97.61
16595;BME280;8410;52.532;13.336;2023-02-19T04:21:40;100954.47;;;4.61;98.08
16595;BME280;8410;52.532;13.336;2023-02-19T04:24:11;100958.16;;;4.47;98.27
16595;BME280;8410;52.532;13.336;2023-02-19T04:26:41;100955.72;;;4.50;97.98
16595;BME280;8410;52.532;13.336;2023-02-19T04:29:09;100967.91;;;4.15;99.02
16595;BME280;8410;52.532;13.336;2023-02-19T04:31:37;100972.06;;;4.13;99.36
16595;BME280;8410;52.532;13.336;2023-02-19T04:34:05;100966.97;;;4.34;99.24
16595;BME280;8410;52.532;13.336;2023-02-19T04:36:33;100973.34;;;4.44;98.27
16595;BME280;8410;52.532;13.336;2023-02-19T04:39:01;100974.94;;;4.42;98.57
16595;BME280;8410;52.532;13.336;2023-02-19T04:41:29;100973.47;;;4.47;100.00
16595;BME280;8410;52.532;13.336;2023-02-19T04:43:56;100977.81;;;4.71;98.79
16595;BME280;8410;52.532;13.336;2023-02-19T04:46:24;100976.00;;;4.47;98.08
16595;BME280;8410;52.532;13.336;2023-02-19T04:48:51;100973.06;;;4.38;98.84
16595;BME280;8410;52.532;13.336;2023-02-19T04:51:19;100985.13;;;4.21;99.20
16595;BME280;8410;52.532;13.336;2023-02-19T04:53:48;100988.13;;;4.32;99.86
16595;BME280;8410;52.532;13.336;2023-02-19T04:56:16;100997.78;;;4.19;98.63
16595;BME280;8410;52.532;13.336;2023-02-19T04:58:44;100988.25;;;4.35;99.44
16595;BME280;8410;52.532;13.336;2023-02-19T05:01:11;100992.50;;;4.15;99.55
16595;BME280;8410;52.532;13.336;2023-02-19T05:03:40;101001.91;;;3.96;100.00
16595;BME280;8410;52.532;13.336;2023-02-19T05:06:09;101000.59;;;4.26;100.00
16595;BME280;8410;52.532;13.336;2023-02-19T05:08:37;100991.09;;;4.42;100.00
16595;BME280;8410;52.532;13.336;2023-02-19T05:11:08;100988.47;;;4.41;99.04
16595;BME280;8410;52.532;13.336;2023-02-19T05:13:37;101003.81;;;4.22;98.60
16595;BME280;8410;52.532;13.336;2023-02-19T05:16:07;100998.16;;;3.88;100.00
16595;BME280;8410;52.532;13.336;2023-02-19T05:18:35;100993.41;;;3.96;100.00
16595;BME280;8410;52.532;13.336;2023-02-19T05:21:03;101000.19;;;4.16;100.00
16595;BME280;8410;52.532;13.336;2023-02-19T05:23:31;100985.66;;;4.33;99.07
16595;BME280;8410;52.532;13.336;2023-02-19T05:25:58;100992.78;;;4.02;99.93
16595;BME280;8410;52.532;13.336;2023-02-19T05:28:31;100992.31;;;4.10;99.47
16595;BME280;8410;52.532;13.336;2023-02-19T05:31:03;100994.31;;;4.17;99.77
16595;BME280;8410;52.532;13.336;2023-02-19T05:33:31;100993.13;;;4.30;98.96
16595;BME280;8410;52.532;13.336;2023-02-19T05:36:02;100991.47;;;4.31;99.18
16595;BME280;8410;52.532;13.336;2023-02-19T05:38:30;100989.91;;;4.34;98.65
16595;BME280;8410;52.532;13.336;2023-02-19T05:41:06;100999.91;;;4.30;98.60
16595;BME280;8410;52.532;13.336;2023-02-19T05:43:36;100997.66;;;4.36;99.08
16595;BME280;8410;52.532;13.336;2023-02-19T05:46:04;100998.13;;;4.48;98.76
16595;BME280;8410;52.532;13.336;2023-02-19T05:48:31;100995.16;;;4.58;97.82
16595;BME280;8410;52.532;13.336;2023-02-19T05:51:02;100998.81;;;4.86;97.07
16595;BME280;8410;52.532;13.336;2023-02-19T05:53:30;101005.91;;;4.72;96.30
16595;BME280;8410;52.532;13.336;2023-02-19T05:55:58;101004.19;;;4.50;97.48
16595;BME280;8410;52.532;13.336;2023-02-19T05:58:26;101007.78;;;4.55;96.11
16595;BME280;8410;52.532;13.336;2023-02-19T06:00:55;101010.38;;;4.36;97.41
16595;BME280;8410;52.532;13.336;2023-02-19T06:03:22;100995.44;;;5.08;96.33
16595;BME280;8410;52.532;13.336;2023-02-19T06:05:50;101000.66;;;5.11;93.21
16595;BME280;8410;52.532;13.336;2023-02-19T06:08:17;101003.06;;;5.75;92.03
16595;BME280;8410;52.532;13.336;2023-02-19T06:10:45;101004.03;;;5.79;90.61
16595;BME280;8410;52.532;13.336;2023-02-19T06:13:12;101006.78;;;5.85;91.83
16595;BME280;8410;52.532;13.336;2023-02-19T06:15:42;100989.22;;;6.43;88.96
16595;BME280;8410;52.532;13.336;2023-02-19T06:18:11;100978.41;;;6.78;88.22
16595;BME280;8410;52.532;13.336;2023-02-19T06:20:39;100983.63;;;6.81;87.08
16595;BME280;8410;52.532;13.336;2023-02-19T06:23:06;100987.34;;;6.38;87.57
16595;BME280;8410;52.532;13.336;2023-02-19T06:25:34;101000.16;;;5.90;89.73
16595;BME280;8410;52.532;13.336;2023-02-19T06:28:01;100998.41;;;6.37;88.12
16595;BME280;8410;52.532;13.336;2023-02-19T06:30:29;101011.78;;;6.05;88.86
16595;BME280;8410;52.532;13.336;2023-02-19T06:32:56;101018.84;;;6.12;88.04
16595;BME280;8410;52.532;13.336;2023-02-19T06:35:25;101022.41;;;5.93;89.51
16595;BME280;8410;52.532;13.336;2023-02-19T06:37:52;101043.16;;;5.78;89.71
16595;BME280;8410;52.532;13.336;2023-02-19T06:40:20;101049.78;;;5.50;90.26
16595;BME280;8410;52.532;13.336;2023-02-19T06:42:47;101052.69;;;5.60;91.39
16595;BME280;8410;52.532;13.336;2023-02-19T06:45:15;101062.44;;;5.47;91.68
16595;BME280;8410;52.532;13.336;2023-02-19T06:47:42;101065.97;;;5.07;92.82
16595;BME280;8410;52.532;13.336;2023-02-19T06:50:09;101075.44;;;5.31;92.41
16595;BME280;8410;52.532;13.336;2023-02-19T06:52:38;101069.53;;;6.00;92.04
16595;BME280;8410;52.532;13.336;2023-02-19T06:55:06;101076.06;;;6.15;90.88
16595;BME280;8410;52.532;13.336;2023-02-19T06:57:33;101075.81;;;6.33;89.77
16595;BME280;8410;52.532;13.336;2023-02-19T07:00:01;101078.56;;;5.69;88.82
16595;BME280;8410;52.532;13.336;2023-02-19T07:02:29;101083.81;;;5.94;90.32
16595;BME280;8410;52.532;13.336;2023-02-19T07:04:57;101091.22;;;6.11;90.50
16595;BME280;8410;52.532;13.336;2023-02-19T07:07:24;101089.00;;;6.20;88.53
16595;BME280;8410;52.532;13.336;2023-02-19T07:09:53;101094.53;;;6.08;87.85
16595;BME280;8410;52.532;13.336;2023-02-19T07:12:21;101090.28;;;6.09;88.53
16595;BME280;8410;52.532;13.336;2023-02-19T07:14:48;101095.97;;;6.24;87.07
16595;BME280;8410;52.532;13.336;2023-02-19T07:17:15;101105.06;;;6.16;87.92
16595;BME280;8410;52.532;13.336;2023-02-19T07:19:43;101105.34;;;6.01;87.24
16595;BME280;8410;52.532;13.336;2023-02-19T07:22:10;101107.50;;;6.13;87.98
16595;BME280;8410;52.532;13.336;2023-02-19T07:24:38;101110.47;;;6.25;87.79
16595;BME280;8410;52.532;13.336;2023-02-19T07:27:07;101120.00;;;5.39;89.06
16595;BME280;8410;52.532;13.336;2023-02-19T07:29:34;101118.69;;;5.71;90.36
16595;BME280;8410;52.532;13.336;2023-02-19T07:32:02;101112.81;;;6.19;87.13
16595;BME280;8410;52.532;13.336;2023-02-19T07:34:29;101127.06;;;5.67;88.96
16595;BME280;8410;52.532;13.336;2023-02-19T07:36:57;101125.22;;;6.08;87.70
16595;BME280;8410;52.532;13.336;2023-02-19T07:39:24;101142.38;;;5.67;87.92
16595;BME280;8410;52.532;13.336;2023-02-19T07:41:52;101138.81;;;5.41;86.54
16595;BME280;8410;52.532;13.336;2023-02-19T07:44:21;101134.53;;;5.63;87.26
16595;BME280;8410;52.532;13.336;2023-02-19T07:46:48;101146.25;;;5.58;87.75
16595;BME280;8410;52.532;13.336;2023-02-19T07:49:16;101148.69;;;5.77;87.36
16595;BME280;8410;52.532;13.336;2023-02-19T07:51:43;101153.91;;;5.58;88.21
16595;BME280;8410;52.532;13.336;2023-02-19T07:54:11;101167.09;;;5.25;89.40
16595;BME280;8410;52.532;13.336;2023-02-19T07:56:38;101167.84;;;5.43;90.24
16595;BME280;8410;52.532;13.336;2023-02-19T07:59:06;101166.97;;;5.43;89.19
16595;BME280;8410;52.532;13.336;2023-02-19T08:01:35;101175.94;;;5.33;89.58
16595;BME280;8410;52.532;13.336;2023-02-19T08:04:20;101180.72;;;5.46;89.74
16595;BME280;8410;52.532;13.336;2023-02-19T08:06:48;101186.75;;;5.48;89.08
16595;BME280;8410;52.532;13.336;2023-02-19T08:09:15;101198.47;;;5.43;89.43
16595;BME280;8410;52.532;13.336;2023-02-19T08:11:42;101205.06;;;5.38;88.88
16595;BME280;8410;52.532;13.336;2023-02-19T08:14:28;101211.53;;;5.30;90.27
16595;BME280;8410;52.532;13.336;2023-02-19T08:16:57;101197.56;;;5.64;90.85
16595;BME280;8410;52.532;13.336;2023-02-19T08:19:24;101201.25;;;5.93;88.02
16595;BME280;8410;52.532;13.336;2023-02-19T08:21:52;101223.50;;;5.31;90.14
16595;BME280;8410;52.532;13.336;2023-02-19T08:24:19;101233.50;;;4.67;91.92
16595;BME280;8410;52.532;13.336;2023-02-19T08:26:47;101237.25;;;4.94;92.39
16595;BME280;8410;52.532;13.336;2023-02-19T08:29:14;101251.06;;;4.99;93.46
16595;BME280;8410;52.532;13.336;2023-02-19T08:31:42;101250.81;;;4.93;92.43
16595;BME280;8410;52.532;13.336;2023-02-19T08:34:11;101260.47;;;5.20;92.56
16595;BME280;8410;52.532;13.336;2023-02-19T08:36:38;101257.25;;;4.85;92.63
16595;BME280;8410;52.532;13.336;2023-02-19T08:39:06;101261.97;;;4.76;92.79
16595;BME280;8410;52.532;13.336;2023-02-19T08:41:33;101277.50;;;5.21;91.75
16595;BME280;8410;52.532;13.336;2023-02-19T08:44:01;101260.34;;;5.17;91.22
16595;BME280;8410;52.532;13.336;2023-02-19T08:46:28;101272.59;;;5.25;90.65
16595;BME280;8410;52.532;13.336;2023-02-19T08:48:59;101269.44;;;5.31;90.90
16595;BME280;8410;52.532;13.336;2023-02-19T08:51:28;101276.31;;;5.13;90.33
16595;BME280;8410;52.532;13.336;2023-02-19T08:53:55;101278.28;;;5.39;91.96
16595;BME280;8410;52.532;13.336;2023-02-19T08:56:22;101283.75;;;5.27;90.66
16595;BME280;8410;52.532;13.336;2023-02-19T08:58:50;101296.25;;;5.02;90.93
16595;BME280;8410;52.532;13.336;2023-02-19T09:01:18;101295.72;;;5.09;91.88
16595;BME280;8410;52.532;13.336;2023-02-19T09:03:45;101297.59;;;5.13;91.37
16595;BME280;8410;52.532;13.336;2023-02-19T09:06:14;101308.88;;;5.18;90.28
16595;BME280;8410;52.532;13.336;2023-02-19T09:08:44;101306.94;;;5.32;89.90
16595;BME280;8410;52.532;13.336;2023-02-19T09:11:12;101307.06;;;4.96;91.84
16595;BME280;8410;52.532;13.336;2023-02-19T09:13:40;101312.22;;;5.56;90.55
16595;BME280;8410;52.532;13.336;2023-02-19T09:16:08;101313.16;;;5.79;88.32
16595;BME280;8410;52.532;13.336;2023-02-19T09:18:36;101314.50;;;5.50;87.28
16595;BME280;8410;52.532;13.336;2023-02-19T09:21:04;101314.81;;;5.58;88.96
16595;BME280;8410;52.532;13.336;2023-02-19T09:23:33;101320.88;;;5.60;89.54
16595;BME280;8410;52.532;13.336;2023-02-19T09:26:04;101319.00;;;5.36;88.64
16595;BME280;8410;52.532;13.336;2023-02-19T09:28:34;101322.75;;;5.44;89.16
16595;BME280;8410;52.532;13.336;2023-02-19T09:31:03;101324.97;;;5.77;89.17
16595;BME280;8410;52.532;13.336;2023-02-19T09:33:31;101330.25;;;5.61;86.76
16595;BME280;8410;52.532;13.336;2023-02-19T09:35:58;101329.84;;;5.30;88.29
16595;BME280;8410;52.532;13.336;2023-02-19T09:38:28;101341.97;;;5.56;89.16
16595;BME280;8410;52.532;13.336;2023-02-19T09:40:57;101336.38;;;5.24;88.71
16595;BME280;8410;52.532;13.336;2023-02-19T09:43:27;101334.22;;;5.33;88.71
16595;BME280;8410;52.532;13.336;2023-02-19T09:46:01;101341.34;;;5.40;86.97
16595;BME280;8410;52.532;13.336;2023-02-19T09:48:29;101343.00;;;5.59;87.53
16595;BME280;8410;52.532;13.336;2023-02-19T09:50:58;101355.81;;;5.61;86.68
16595;BME280;8410;52.532;13.336;2023-02-19T09:53:32;101351.31;;;5.55;88.07
16595;BME280;8410;52.532;13.336;2023-02-19T09:56:06;101355.19;;;5.66;86.29
16595;BME280;8410;52.532;13.336;2023-02-19T09:58:41;101364.53;;;5.66;85.28
16595;BME280;8410;52.532;13.336;2023-02-19T10:01:10;101368.56;;;5.80;84.74
16595;BME280;8410;52.532;13.336;2023-02-19T10:03:41;101368.81;;;5.86;85.53
16595;BME280;8410;52.532;13.336;2023-02-19T10:06:15;101365.75;;;5.93;84.80
16595;BME280;8410;52.532;13.336;2023-02-19T10:08:44;101368.97;;;6.10;83.36
16595;BME280;8410;52.532;13.336;2023-02-19T10:11:13;101369.19;;;6.37;83.05
16595;BME280;8410;52.532;13.336;2023-02-19T10:13:44;101376.09;;;5.96;83.35
16595;BME280;8410;52.532;13.336;2023-02-19T10:16:16;101380.53;;;5.81;83.85
16595;BME280;8410;52.532;13.336;2023-02-19T10:18:45;101385.19;;;6.11;83.90
16595;BME280;8410;52.532;13.336;2023-02-19T10:21:16;101397.44;;;5.99;83.40
16595;BME280;8410;52.532;13.336;2023-02-19T10:23:46;101398.72;;;6.29;81.95
16595;BME280;8410;52.532;13.336;2023-02-19T10:26:15;101413.84;;;5.84;81.24
16595;BME280;8410;52.532;13.336;2023-02-19T10:28:44;101413.84;;;6.04;81.53
16595;BME280;8410;52.532;13.336;2023-02-19T10:31:15;101413.59;;;5.97;79.88
16595;BME280;8410;52.532;13.336;2023-02-19T10:33:50;101419.53;;;5.96;81.88
16595;BME280;8410;52.532;13.336;2023-02-19T10:36:28;101423.53;;;5.91;80.82
16595;BME280;8410;52.532;13.336;2023-02-19T10:38:59;101423.53;;;5.91;82.22
16595;BME280;8410;52.532;13.336;2023-02-19T10:41:28;101432.31;;;5.96;82.39
16595;BME280;8410;52.532;13.336;2023-02-19T10:44:03;101433.81;;;6.33;81.45
16595;BME280;8410;52.532;13.336;2023-02-19T10:46:34;101429.59;;;6.55;79.38
16595;BME280;8410;52.532;13.336;2023-02-19T10:49:05;101444.03;;;6.33;79.44
16595;BME280;8410;52.532;13.336;2023-02-19T10:51:41;101441.00;;;6.63;78.05
16595;BME280;8410;52.532;13.336;2023-02-19T10:54:16;101437.69;;;7.33;76.79
16595;BME280;8410;52.532;13.336;2023-02-19T10:56:45;101439.91;;;7.24;76.14
16595;BME280;8410;52.532;13.336;2023-02-19T10:59:22;101449.16;;;6.33;77.45
16595;BME280;8410;52.532;13.336;2023-02-19T11:01:54;101444.56;;;6.46;76.17
16595;BME280;8410;52.532;13.336;2023-02-19T11:04:23;101463.94;;;6.40;76.01
16595;BME280;8410;52.532;13.336;2023-02-19T11:06:51;101463.31;;;6.04;74.37
16595;BME280;8410;52.532;13.336;2023-02-19T11:09:24;101471.25;;;6.31;75.46
16595;BME280;8410;52.532;13.336;2023-02-19T11:11:54;101477.56;;;6.20;74.65
16595;BME280;8410;52.532;13.336;2023-02-19T11:14:25;101482.47;;;6.35;75.30
16595;BME280;8410;52.532;13.336;2023-02-19T11:16:55;101482.16;;;6.69;74.49
16595;BME280;8410;52.532;13.336;2023-02-19T11:19:29;101488.88;;;6.88;74.62
16595;BME280;8410;52.532;13.336;2023-02-19T11:21:59;101491.97;;;6.37;75.43
16595;BME280;8410;52.532;13.336;2023-02-19T11:24:31;101489.75;;;6.47;74.81
16595;BME280;8410;52.532;13.336;2023-02-19T11:27:02;101495.06;;;6.30;75.52
16595;BME280;8410;52.532;13.336;2023-02-19T11:29:32;101494.97;;;6.69;74.88
16595;BME280;8410;52.532;13.336;2023-02-19T11:32:23;101498.78;;;6.58;75.28
16595;BME280;8410;52.532;13.336;2023-02-19T11:34:51;101492.19;;;6.85;74.93
16595;BME280;8410;52.532;13.336;2023-02-19T11:37:20;101494.34;;;6.54;73.51
16595;BME280;8410;52.532;13.336;2023-02-19T11:39:49;101513.41;;;6.62;73.55
16595;BME280;8410;52.532;13.336;2023-02-19T11:42:25;101517.16;;;6.28;74.66
16595;BME280;8410;52.532;13.336;2023-02-19T11:45:08;101515.78;;;6.36;74.69
16595;BME280;8410;52.532;13.336;2023-02-19T11:50:58;101501.13;;;6.32;72.22
16595;BME280;8410;52.532;13.336;2023-02-19T11:53:30;101499.31;;;6.30;72.29
16595;BME280;8410;52.532;13.336;2023-02-19T11:56:13;101501.66;;;6.66;72.74
16595;BME280;8410;52.532;13.336;2023-02-19T11:58:56;101499.81;;;6.84;71.16
16595;BME280;8410;52.532;13.336;2023-02-19T12:01:40;101491.97;;;6.79;71.21
16595;BME280;8410;52.532;13.336;2023-02-19T12:04:27;101508.94;;;6.77;70.59
16595;BME280;8410;52.532;13.336;2023-02-19T12:07:05;101511.72;;;6.62;69.73
16595;BME280;8410;52.532;13.336;2023-02-19T12:09:48;101517.59;;;6.60;70.19
16595;BME280;8410;52.532;13.336;2023-02-19T12:12:28;101532.94;;;6.81;69.80
16595;BME280;8410;52.532;13.336;2023-02-19T12:15:21;101526.84;;;6.77;69.11
16595;BME280;8410;52.532;13.336;2023-02-19T12:20:47;101523.16;;;6.92;68.00
16595;BME280;8410;52.532;13.336;2023-02-19T12:23:42;101531.09;;;6.56;68.44
16595;BME280;8410;52.532;13.336;2023-02-19T12:26:21;101532.63;;;6.31;68.41
16595;BME280;8410;52.532;13.336;2023-02-19T12:29:22;101536.88;;;6.52;68.85
16595;BME280;8410;52.532;13.336;2023-02-19T12:32:03;101531.50;;;6.46;69.71
16595;BME280;8410;52.532;13.336;2023-02-19T12:37:40;101549.63;;;6.71;70.39
16595;BME280;8410;52.532;13.336;2023-02-19T12:40:37;101552.84;;;7.09;70.20
16595;BME280;8410;52.532;13.336;2023-02-19T12:43:14;101544.91;;;7.03;69.76
16595;BME280;8410;52.532;13.336;2023-02-19T12:45:46;101548.16;;;6.76;70.19
16595;BME280;8410;52.532;13.336;2023-02-19T12:48:24;101560.00;;;6.74;70.45
16595;BME280;8410;52.532;13.336;2023-02-19T12:50:56;101548.28;;;7.45;70.16
16595;BME280;8410;52.532;13.336;2023-02-19T12:53:32;101552.63;;;7.48;67.37
16595;BME280;8410;52.532;13.336;2023-02-19T12:56:09;101552.19;;;7.36;66.58
16595;BME280;8410;52.532;13.336;2023-02-19T12:58:43;101558.09;;;7.12;66.55
16595;BME280;8410;52.532;13.336;2023-02-19T13:01:17;101546.81;;;7.07;67.15
16595;BME280;8410;52.532;13.336;2023-02-19T13:03:50;101559.69;;;7.31;65.00
16595;BME280;8410;52.532;13.336;2023-02-19T13:06:29;101566.81;;;7.38;63.80
16595;BME280;8410;52.532;13.336;2023-02-19T13:09:02;101564.06;;;7.34;65.65
16595;BME280;8410;52.532;13.336;2023-02-19T13:11:36;101576.28;;;7.41;66.17
16595;BME280;8410;52.532;13.336;2023-02-19T13:14:07;101569.41;;;6.96;66.12
16595;BME280;8410;52.532;13.336;2023-02-19T13:16:43;101580.59;;;7.19;66.56
16595;BME280;8410;52.532;13.336;2023-02-19T13:19:12;101583.69;;;7.33;66.04
16595;BME280;8410;52.532;13.336;2023-02-19T13:21:43;101577.81;;;7.81;65.86
16595;BME280;8410;52.532;13.336;2023-02-19T13:24:33;101572.31;;;7.26;65.48
16595;BME280;8410;52.532;13.336;2023-02-19T13:27:12;101575.13;;;7.33;66.76
16595;BME280;8410;52.532;13.336;2023-02-19T13:29:58;101565.06;;;8.06;65.31
16595;BME280;8410;52.532;13.336;2023-02-19T13:32:46;101564.50;;;7.91;65.05